sensor_id;sensor_type;location;lat;lon;timestamp;P1;durP1;ratioP1;P2;durP2;ratioP2
39930;SDS011;26635;-35.248;149.138;2024-02-23T00:01:28;1.58;;;0.70;;
39930;SDS011;26635;-35.248;149.138;2024-02-23T00:03:59;2.72;;;1.02;;
39930;SDS011;26635;-35.248;149.138;2024-02-23T00:06:35;3.70;;;0.85;;
39930;SDS011;26635;-35.248;149.138;2024-02-23T00:09:06;3.78;;;1.00;;
39930;SDS011;26635;-35.248;149.138;2024-02-23T00:11:43;3.00;;;0.80;;
39930;SDS011;26635;-35.248;149.138;2024-02-23T00:14:15;3.08;;;1.05;;
39930;SDS011;26635;-35.248;149.138;2024-02-23T00:16:50;2.40;;;1.10;;
39930;SDS011;26635;-35.248;149.138;2024-02-23T00:19:22;2.80;;;1.30;;
39930;SDS011;26635;-35.248;149.138;2024-02-23T00:21:54;2.45;;;1.00;;
39930;SDS011;26635;-35.248;149.138;2024-02-23T00:24:28;3.15;;;1.00;;
39930;SDS011;26635;-35.248;149.138;2024-02-23T00:26:59;5.45;;;1.55;;
39930;SDS011;26635;-35.248;149.138;2024-02-23T00:29:31;7.28;;;1.73;;
39930;SDS011;26635;-35.248;149.138;2024-02-23T00:32:03;4.97;;;1.75;;
39930;SDS011;26635;-35.248;149.138;2024-02-23T00:34:34;3.55;;;1.17;;
39930;SDS011;26635;-35.248;149.138;2024-02-23T00:37:06;3.00;;;1.42;;
39930;SDS011;26635;-35.248;149.138;2024-02-23T00:39:37;6.32;;;1.95;;
39930;SDS011;26635;-35.248;149.138;2024-02-23T00:42:08;3.22;;;1.17;;
39930;SDS011;26635;-35.248;149.138;2024-02-23T00:44:39;2.85;;;1.35;;
39930;SDS011;26635;-35.248;149.138;2024-02-23T00:47:10;1.58;;;1.00;;
39930;SDS011;26635;-35.248;149.138;2024-02-23T00:49:41;2.28;;;1.10;;
39930;SDS011;26635;-35.248;149.138;2024-02-23T00:52:12;3.47;;;0.95;;
39930;SDS011;26635;-35.248;149.138;2024-02-23T00:54:44;2.72;;;0.98;;
39930;SDS011;26635;-35.248;149.138;2024-02-23T00:57:15;2.17;;;1.05;;
39930;SDS011;26635;-35.248;149.138;2024-02-23T00:59:47;3.17;;;1.10;;
39930;SDS011;26635;-35.248;149.138;2024-02-23T01:02:18;2.58;;;1.50;;
39930;SDS011;26635;-35.248;149.138;2024-02-23T01:04:49;4.63;;;1.45;;
39930;SDS011;26635;-35.248;149.138;2024-02-23T01:07:28;3.33;;;1.10;;
39930;SDS011;26635;-35.248;149.138;2024-02-23T01:10:00;2.47;;;0.95;;
39930;SDS011;26635;-35.248;149.138;2024-02-23T01:12:32;3.67;;;1.33;;
39930;SDS011;26635;-35.248;149.138;2024-02-23T01:15:04;4.03;;;0.93;;
39930;SDS011;26635;-35.248;149.138;2024-02-23T01:17:46;3.15;;;0.80;;
39930;SDS011;26635;-35.248;149.138;2024-02-23T01:20:19;2.78;;;1.20;;
39930;SDS011;26635;-35.248;149.138;2024-02-23T01:22:51;1.92;;;1.10;;
39930;SDS011;26635;-35.248;149.138;2024-02-23T01:25:22;3.70;;;1.20;;
39930;SDS011;26635;-35.248;149.138;2024-02-23T01:27:53;4.22;;;1.27;;
39930;SDS011;26635;-35.248;149.138;2024-02-23T01:30:35;5.35;;;1.48;;
39930;SDS011;26635;-35.248;149.138;2024-02-23T01:33:08;2.55;;;1.42;;
39930;SDS011;26635;-35.248;149.138;2024-02-23T01:35:40;4.82;;;1.60;;
39930;SDS011;26635;-35.248;149.138;2024-02-23T01:38:12;5.18;;;1.80;;
39930;SDS011;26635;-35.248;149.138;2024-02-23T01:40:56;3.88;;;1.50;;
39930;SDS011;26635;-35.248;149.138;2024-02-23T01:43:33;3.63;;;1.17;;
39930;SDS011;26635;-35.248;149.138;2024-02-23T01:46:04;4.13;;;1.95;;
39930;SDS011;26635;-35.248;149.138;2024-02-23T01:48:36;4.15;;;1.65;;
39930;SDS011;26635;-35.248;149.138;2024-02-23T01:51:07;4.40;;;2.10;;
39930;SDS011;26635;-35.248;149.138;2024-02-23T01:53:38;4.68;;;1.98;;
39930;SDS011;26635;-35.248;149.138;2024-02-23T01:56:10;5.90;;;2.10;;
39930;SDS011;26635;-35.248;149.138;2024-02-23T01:58:47;3.17;;;1.20;;
39930;SDS011;26635;-35.248;149.138;2024-02-23T02:01:21;3.88;;;1.42;;
39930;SDS011;26635;-35.248;149.138;2024-02-23T02:03:52;4.15;;;1.85;;
39930;SDS011;26635;-35.248;149.138;2024-02-23T02:06:25;3.40;;;1.33;;
39930;SDS011;26635;-35.248;149.138;2024-02-23T02:08:56;5.03;;;2.05;;
39930;SDS011;26635;-35.248;149.138;2024-02-23T02:11:27;3.65;;;1.98;;
39930;SDS011;26635;-35.248;149.138;2024-02-23T02:13:58;6.43;;;2.53;;
39930;SDS011;26635;-35.248;149.138;2024-02-23T02:16:40;6.32;;;2.28;;
39930;SDS011;26635;-35.248;149.138;2024-02-23T02:19:13;7.78;;;2.50;;
39930;SDS011;26635;-35.248;149.138;2024-02-23T02:21:46;7.10;;;2.20;;
39930;SDS011;26635;-35.248;149.138;2024-02-23T02:24:16;4.15;;;1.80;;
39930;SDS011;26635;-35.248;149.138;2024-02-23T02:26:46;4.75;;;1.83;;
39930;SDS011;26635;-35.248;149.138;2024-02-23T02:29:18;7.22;;;2.30;;
39930;SDS011;26635;-35.248;149.138;2024-02-23T02:31:49;6.15;;;2.53;;
39930;SDS011;26635;-35.248;149.138;2024-02-23T02:34:19;4.95;;;2.03;;
39930;SDS011;26635;-35.248;149.138;2024-02-23T02:36:50;6.25;;;2.00;;
39930;SDS011;26635;-35.248;149.138;2024-02-23T02:39:21;3.40;;;1.73;;
39930;SDS011;26635;-35.248;149.138;2024-02-23T02:41:51;4.97;;;2.10;;
39930;SDS011;26635;-35.248;149.138;2024-02-23T02:44:23;8.23;;;1.95;;
39930;SDS011;26635;-35.248;149.138;2024-02-23T02:46:59;6.32;;;1.38;;
39930;SDS011;26635;-35.248;149.138;2024-02-23T02:49:31;3.58;;;1.60;;
39930;SDS011;26635;-35.248;149.138;2024-02-23T02:52:02;5.22;;;2.60;;
39930;SDS011;26635;-35.248;149.138;2024-02-23T02:54:32;5.05;;;1.77;;
39930;SDS011;26635;-35.248;149.138;2024-02-23T02:57:03;4.63;;;1.40;;
39930;SDS011;26635;-35.248;149.138;2024-02-23T02:59:36;3.47;;;1.58;;
39930;SDS011;26635;-35.248;149.138;2024-02-23T03:02:07;2.70;;;1.13;;
39930;SDS011;26635;-35.248;149.138;2024-02-23T03:04:37;5.53;;;1.17;;
39930;SDS011;26635;-35.248;149.138;2024-02-23T03:07:07;4.35;;;1.17;;
39930;SDS011;26635;-35.248;149.138;2024-02-23T03:09:38;3.40;;;1.10;;
39930;SDS011;26635;-35.248;149.138;2024-02-23T03:12:10;2.80;;;1.08;;
39930;SDS011;26635;-35.248;149.138;2024-02-23T03:14:40;3.63;;;1.08;;
39930;SDS011;26635;-35.248;149.138;2024-02-23T03:17:10;2.35;;;0.93;;
39930;SDS011;26635;-35.248;149.138;2024-02-23T03:19:41;5.20;;;0.90;;
39930;SDS011;26635;-35.248;149.138;2024-02-23T03:22:12;1.77;;;1.00;;
39930;SDS011;26635;-35.248;149.138;2024-02-23T03:24:43;3.90;;;0.80;;
39930;SDS011;26635;-35.248;149.138;2024-02-23T03:27:13;1.23;;;0.60;;
39930;SDS011;26635;-35.248;149.138;2024-02-23T03:29:43;3.58;;;0.80;;
39930;SDS011;26635;-35.248;149.138;2024-02-23T03:32:14;3.70;;;0.82;;
39930;SDS011;26635;-35.248;149.138;2024-02-23T03:34:44;2.80;;;0.80;;
39930;SDS011;26635;-35.248;149.138;2024-02-23T03:37:16;8.80;;;1.27;;
39930;SDS011;26635;-35.248;149.138;2024-02-23T03:39:47;4.47;;;1.15;;
39930;SDS011;26635;-35.248;149.138;2024-02-23T03:42:18;2.85;;;0.88;;
39930;SDS011;26635;-35.248;149.138;2024-02-23T03:44:48;2.83;;;0.98;;
39930;SDS011;26635;-35.248;149.138;2024-02-23T03:47:19;1.60;;;0.70;;
39930;SDS011;26635;-35.248;149.138;2024-02-23T03:49:51;3.67;;;0.90;;
39930;SDS011;26635;-35.248;149.138;2024-02-23T03:52:21;2.30;;;0.93;;
39930;SDS011;26635;-35.248;149.138;2024-02-23T03:54:51;3.05;;;1.13;;
39930;SDS011;26635;-35.248;149.138;2024-02-23T03:57:23;1.00;;;0.70;;
39930;SDS011;26635;-35.248;149.138;2024-02-23T03:59:54;3.45;;;0.98;;
39930;SDS011;26635;-35.248;149.138;2024-02-23T04:02:26;5.18;;;0.90;;
39930;SDS011;26635;-35.248;149.138;2024-02-23T04:04:56;3.63;;;0.98;;
39930;SDS011;26635;-35.248;149.138;2024-02-23T04:07:26;3.08;;;0.70;;
39930;SDS011;26635;-35.248;149.138;2024-02-23T04:09:57;3.72;;;1.08;;
39930;SDS011;26635;-35.248;149.138;2024-02-23T04:12:27;2.45;;;0.75;;
39930;SDS011;26635;-35.248;149.138;2024-02-23T04:14:59;4.50;;;1.02;;
39930;SDS011;26635;-35.248;149.138;2024-02-23T04:17:29;3.63;;;0.95;;
39930;SDS011;26635;-35.248;149.138;2024-02-23T04:20:00;4.00;;;0.68;;
39930;SDS011;26635;-35.248;149.138;2024-02-23T04:22:36;6.75;;;0.80;;
39930;SDS011;26635;-35.248;149.138;2024-02-23T04:25:07;2.63;;;0.95;;
39930;SDS011;26635;-35.248;149.138;2024-02-23T04:27:37;2.47;;;0.70;;
39930;SDS011;26635;-35.248;149.138;2024-02-23T04:30:08;2.97;;;0.73;;
39930;SDS011;26635;-35.248;149.138;2024-02-23T04:32:39;2.60;;;0.85;;
39930;SDS011;26635;-35.248;149.138;2024-02-23T04:35:10;2.45;;;0.98;;
39930;SDS011;26635;-35.248;149.138;2024-02-23T04:37:43;3.55;;;0.90;;
39930;SDS011;26635;-35.248;149.138;2024-02-23T04:40:13;3.22;;;1.05;;
39930;SDS011;26635;-35.248;149.138;2024-02-23T04:42:44;2.25;;;0.70;;
39930;SDS011;26635;-35.248;149.138;2024-02-23T04:45:15;3.08;;;0.80;;
39930;SDS011;26635;-35.248;149.138;2024-02-23T04:47:46;3.40;;;0.80;;
39930;SDS011;26635;-35.248;149.138;2024-02-23T04:50:17;1.95;;;0.70;;
39930;SDS011;26635;-35.248;149.138;2024-02-23T04:52:48;2.20;;;0.85;;
39930;SDS011;26635;-35.248;149.138;2024-02-23T04:55:18;2.72;;;0.85;;
39930;SDS011;26635;-35.248;149.138;2024-02-23T04:57:49;3.20;;;0.80;;
39930;SDS011;26635;-35.248;149.138;2024-02-23T05:00:19;1.70;;;0.80;;
39930;SDS011;26635;-35.248;149.138;2024-02-23T05:02:49;2.95;;;0.98;;
39930;SDS011;26635;-35.248;149.138;2024-02-23T05:05:20;2.63;;;0.82;;
39930;SDS011;26635;-35.248;149.138;2024-02-23T05:07:51;3.78;;;1.30;;
39930;SDS011;26635;-35.248;149.138;2024-02-23T05:10:22;12.80;;;2.30;;
39930;SDS011;26635;-35.248;149.138;2024-02-23T05:12:53;5.38;;;1.27;;
39930;SDS011;26635;-35.248;149.138;2024-02-23T05:15:24;3.22;;;1.10;;
39930;SDS011;26635;-35.248;149.138;2024-02-23T05:17:54;4.95;;;1.10;;
39930;SDS011;26635;-35.248;149.138;2024-02-23T05:20:24;5.93;;;1.20;;
39930;SDS011;26635;-35.248;149.138;2024-02-23T05:22:55;2.97;;;1.10;;
39930;SDS011;26635;-35.248;149.138;2024-02-23T05:25:25;5.55;;;1.10;;
39930;SDS011;26635;-35.248;149.138;2024-02-23T05:27:56;2.90;;;1.20;;
39930;SDS011;26635;-35.248;149.138;2024-02-23T05:30:26;5.63;;;1.50;;
39930;SDS011;26635;-35.248;149.138;2024-02-23T05:33:01;4.88;;;1.92;;
39930;SDS011;26635;-35.248;149.138;2024-02-23T05:35:34;2.85;;;1.45;;
39930;SDS011;26635;-35.248;149.138;2024-02-23T05:38:04;4.57;;;1.60;;
39930;SDS011;26635;-35.248;149.138;2024-02-23T05:40:35;3.00;;;1.30;;
39930;SDS011;26635;-35.248;149.138;2024-02-23T05:43:05;3.78;;;1.58;;
39930;SDS011;26635;-35.248;149.138;2024-02-23T05:45:36;3.65;;;2.00;;
39930;SDS011;26635;-35.248;149.138;2024-02-23T05:48:09;5.22;;;1.25;;
39930;SDS011;26635;-35.248;149.138;2024-02-23T05:50:40;2.45;;;1.45;;
39930;SDS011;26635;-35.248;149.138;2024-02-23T05:53:10;5.07;;;1.60;;
39930;SDS011;26635;-35.248;149.138;2024-02-23T05:55:41;5.32;;;1.92;;
39930;SDS011;26635;-35.248;149.138;2024-02-23T05:58:11;5.45;;;2.40;;
39930;SDS011;26635;-35.248;149.138;2024-02-23T06:00:42;4.35;;;1.45;;
39930;SDS011;26635;-35.248;149.138;2024-02-23T06:03:12;3.47;;;1.73;;
39930;SDS011;26635;-35.248;149.138;2024-02-23T06:05:43;5.05;;;1.70;;
39930;SDS011;26635;-35.248;149.138;2024-02-23T06:08:14;5.95;;;2.03;;
39930;SDS011;26635;-35.248;149.138;2024-02-23T06:11:03;6.45;;;1.77;;
39930;SDS011;26635;-35.248;149.138;2024-02-23T06:13:35;5.55;;;1.80;;
39930;SDS011;26635;-35.248;149.138;2024-02-23T06:16:09;4.07;;;2.00;;
39930;SDS011;26635;-35.248;149.138;2024-02-23T06:18:40;5.53;;;2.10;;
39930;SDS011;26635;-35.248;149.138;2024-02-23T06:21:11;7.35;;;2.30;;
39930;SDS011;26635;-35.248;149.138;2024-02-23T06:23:43;5.13;;;1.65;;
39930;SDS011;26635;-35.248;149.138;2024-02-23T06:26:14;5.95;;;2.55;;
39930;SDS011;26635;-35.248;149.138;2024-02-23T06:28:44;6.35;;;2.45;;
39930;SDS011;26635;-35.248;149.138;2024-02-23T06:31:15;4.80;;;2.45;;
39930;SDS011;26635;-35.248;149.138;2024-02-23T06:33:45;7.22;;;3.22;;
39930;SDS011;26635;-35.248;149.138;2024-02-23T06:36:18;5.75;;;3.00;;
39930;SDS011;26635;-35.248;149.138;2024-02-23T06:38:48;6.53;;;2.92;;
39930;SDS011;26635;-35.248;149.138;2024-02-23T06:41:18;8.65;;;3.47;;
39930;SDS011;26635;-35.248;149.138;2024-02-23T06:43:49;4.50;;;2.88;;
39930;SDS011;26635;-35.248;149.138;2024-02-23T06:46:20;5.93;;;4.25;;
39930;SDS011;26635;-35.248;149.138;2024-02-23T06:48:51;7.18;;;3.72;;
39930;SDS011;26635;-35.248;149.138;2024-02-23T06:51:22;6.55;;;4.03;;
39930;SDS011;26635;-35.248;149.138;2024-02-23T06:53:52;8.02;;;4.90;;
39930;SDS011;26635;-35.248;149.138;2024-02-23T06:56:25;8.10;;;5.45;;
39930;SDS011;26635;-35.248;149.138;2024-02-23T06:58:55;11.35;;;6.20;;
39930;SDS011;26635;-35.248;149.138;2024-02-23T07:01:26;9.25;;;6.38;;
39930;SDS011;26635;-35.248;149.138;2024-02-23T07:03:56;9.00;;;7.00;;
39930;SDS011;26635;-35.248;149.138;2024-02-23T07:06:27;11.98;;;7.07;;
39930;SDS011;26635;-35.248;149.138;2024-02-23T07:08:59;10.55;;;7.10;;
39930;SDS011;26635;-35.248;149.138;2024-02-23T07:11:30;10.43;;;7.95;;
39930;SDS011;26635;-35.248;149.138;2024-02-23T07:14:01;10.77;;;7.97;;
39930;SDS011;26635;-35.248;149.138;2024-02-23T07:16:31;11.55;;;9.32;;
39930;SDS011;26635;-35.248;149.138;2024-02-23T07:19:01;13.27;;;9.40;;
39930;SDS011;26635;-35.248;149.138;2024-02-23T07:21:32;11.40;;;9.68;;
39930;SDS011;26635;-35.248;149.138;2024-02-23T07:24:05;13.30;;;11.18;;
39930;SDS011;26635;-35.248;149.138;2024-02-23T07:26:36;14.48;;;10.77;;
39930;SDS011;26635;-35.248;149.138;2024-02-23T07:29:07;13.40;;;11.48;;
39930;SDS011;26635;-35.248;149.138;2024-02-23T07:31:38;15.80;;;13.75;;
39930;SDS011;26635;-35.248;149.138;2024-02-23T07:34:08;16.40;;;13.73;;
39930;SDS011;26635;-35.248;149.138;2024-02-23T07:36:38;18.25;;;14.65;;
39930;SDS011;26635;-35.248;149.138;2024-02-23T07:39:09;19.38;;;14.93;;
39930;SDS011;26635;-35.248;149.138;2024-02-23T07:41:43;20.05;;;16.45;;
39930;SDS011;26635;-35.248;149.138;2024-02-23T07:44:13;18.30;;;15.88;;
39930;SDS011;26635;-35.248;149.138;2024-02-23T07:46:45;21.52;;;17.23;;
39930;SDS011;26635;-35.248;149.138;2024-02-23T07:49:15;19.50;;;16.77;;
39930;SDS011;26635;-35.248;149.138;2024-02-23T07:51:46;24.60;;;20.48;;
39930;SDS011;26635;-35.248;149.138;2024-02-23T07:54:17;27.08;;;22.15;;
39930;SDS011;26635;-35.248;149.138;2024-02-23T07:56:47;25.02;;;20.70;;
39930;SDS011;26635;-35.248;149.138;2024-02-23T07:59:17;26.70;;;20.77;;
39930;SDS011;26635;-35.248;149.138;2024-02-23T08:01:48;29.48;;;21.85;;
39930;SDS011;26635;-35.248;149.138;2024-02-23T08:04:18;24.55;;;20.27;;
39930;SDS011;26635;-35.248;149.138;2024-02-23T08:06:51;26.40;;;21.48;;
39930;SDS011;26635;-35.248;149.138;2024-02-23T08:09:21;24.73;;;20.10;;
39930;SDS011;26635;-35.248;149.138;2024-02-23T08:11:52;28.52;;;20.40;;
39930;SDS011;26635;-35.248;149.138;2024-02-23T08:14:22;23.63;;;19.60;;
39930;SDS011;26635;-35.248;149.138;2024-02-23T08:16:53;25.63;;;21.20;;
39930;SDS011;26635;-35.248;149.138;2024-02-23T08:19:26;26.95;;;19.25;;
39930;SDS011;26635;-35.248;149.138;2024-02-23T08:21:56;21.77;;;17.75;;
39930;SDS011;26635;-35.248;149.138;2024-02-23T08:24:28;23.83;;;19.15;;
39930;SDS011;26635;-35.248;149.138;2024-02-23T08:26:59;22.48;;;18.23;;
39930;SDS011;26635;-35.248;149.138;2024-02-23T08:29:29;23.00;;;18.75;;
39930;SDS011;26635;-35.248;149.138;2024-02-23T08:32:01;23.15;;;19.48;;
39930;SDS011;26635;-35.248;149.138;2024-02-23T08:34:31;20.33;;;17.15;;
39930;SDS011;26635;-35.248;149.138;2024-02-23T08:37:03;19.80;;;16.67;;
39930;SDS011;26635;-35.248;149.138;2024-02-23T08:39:33;23.75;;;17.65;;
39930;SDS011;26635;-35.248;149.138;2024-02-23T08:42:08;21.02;;;17.35;;
39930;SDS011;26635;-35.248;149.138;2024-02-23T08:44:38;23.77;;;16.95;;
39930;SDS011;26635;-35.248;149.138;2024-02-23T08:47:09;21.83;;;17.27;;
39930;SDS011;26635;-35.248;149.138;2024-02-23T08:49:39;24.13;;;16.38;;
39930;SDS011;26635;-35.248;149.138;2024-02-23T08:52:10;23.30;;;17.35;;
39930;SDS011;26635;-35.248;149.138;2024-02-23T08:54:40;19.70;;;15.68;;
39930;SDS011;26635;-35.248;149.138;2024-02-23T08:57:11;17.23;;;15.02;;
39930;SDS011;26635;-35.248;149.138;2024-02-23T08:59:46;19.95;;;15.23;;
39930;SDS011;26635;-35.248;149.138;2024-02-23T09:02:16;18.77;;;14.60;;
39930;SDS011;26635;-35.248;149.138;2024-02-23T09:04:47;16.10;;;13.63;;
39930;SDS011;26635;-35.248;149.138;2024-02-23T09:07:18;20.05;;;15.20;;
39930;SDS011;26635;-35.248;149.138;2024-02-23T09:09:50;19.40;;;14.68;;
39930;SDS011;26635;-35.248;149.138;2024-02-23T09:12:20;17.20;;;12.80;;
39930;SDS011;26635;-35.248;149.138;2024-02-23T09:14:53;17.30;;;12.15;;
39930;SDS011;26635;-35.248;149.138;2024-02-23T09:17:23;17.25;;;13.07;;
39930;SDS011;26635;-35.248;149.138;2024-02-23T09:19:54;16.65;;;12.93;;
39930;SDS011;26635;-35.248;149.138;2024-02-23T09:22:25;19.48;;;12.98;;
39930;SDS011;26635;-35.248;149.138;2024-02-23T09:24:58;18.25;;;13.25;;
39930;SDS011;26635;-35.248;149.138;2024-02-23T09:27:31;16.70;;;11.73;;
39930;SDS011;26635;-35.248;149.138;2024-02-23T09:30:03;16.90;;;11.50;;
39930;SDS011;26635;-35.248;149.138;2024-02-23T09:32:34;16.67;;;11.23;;
39930;SDS011;26635;-35.248;149.138;2024-02-23T09:35:05;14.30;;;10.90;;
39930;SDS011;26635;-35.248;149.138;2024-02-23T09:37:36;15.27;;;10.18;;
39930;SDS011;26635;-35.248;149.138;2024-02-23T09:40:08;15.35;;;10.32;;
39930;SDS011;26635;-35.248;149.138;2024-02-23T09:42:42;14.43;;;10.30;;
39930;SDS011;26635;-35.248;149.138;2024-02-23T09:45:12;15.23;;;10.73;;
39930;SDS011;26635;-35.248;149.138;2024-02-23T09:47:46;14.50;;;10.50;;
39930;SDS011;26635;-35.248;149.138;2024-02-23T09:50:24;12.27;;;9.60;;
39930;SDS011;26635;-35.248;149.138;2024-02-23T09:53:00;15.73;;;11.17;;
39930;SDS011;26635;-35.248;149.138;2024-02-23T09:55:33;13.07;;;9.82;;
39930;SDS011;26635;-35.248;149.138;2024-02-23T09:58:15;13.80;;;9.32;;
39930;SDS011;26635;-35.248;149.138;2024-02-23T10:00:46;16.90;;;10.23;;
39930;SDS011;26635;-35.248;149.138;2024-02-23T10:03:21;13.80;;;9.50;;
39930;SDS011;26635;-35.248;149.138;2024-02-23T10:06:06;12.73;;;8.88;;
39930;SDS011;26635;-35.248;149.138;2024-02-23T10:08:48;12.68;;;8.85;;
39930;SDS011;26635;-35.248;149.138;2024-02-23T10:11:25;14.68;;;10.07;;
39930;SDS011;26635;-35.248;149.138;2024-02-23T10:13:57;11.55;;;8.93;;
39930;SDS011;26635;-35.248;149.138;2024-02-23T10:16:28;11.55;;;9.05;;
39930;SDS011;26635;-35.248;149.138;2024-02-23T10:19:01;14.88;;;10.63;;
39930;SDS011;26635;-35.248;149.138;2024-02-23T10:21:45;17.40;;;9.70;;
39930;SDS011;26635;-35.248;149.138;2024-02-23T10:24:16;16.98;;;11.45;;
39930;SDS011;26635;-35.248;149.138;2024-02-23T10:26:48;15.82;;;11.63;;
39930;SDS011;26635;-35.248;149.138;2024-02-23T10:29:31;20.58;;;12.95;;
39930;SDS011;26635;-35.248;149.138;2024-02-23T10:32:12;19.52;;;13.60;;
39930;SDS011;26635;-35.248;149.138;2024-02-23T10:34:50;20.38;;;14.07;;
39930;SDS011;26635;-35.248;149.138;2024-02-23T10:37:31;20.45;;;13.85;;
39930;SDS011;26635;-35.248;149.138;2024-02-23T10:40:07;22.02;;;12.82;;
39930;SDS011;26635;-35.248;149.138;2024-02-23T10:42:46;16.52;;;11.43;;
39930;SDS011;26635;-35.248;149.138;2024-02-23T10:45:36;15.57;;;10.57;;
39930;SDS011;26635;-35.248;149.138;2024-02-23T10:48:09;16.80;;;11.23;;
39930;SDS011;26635;-35.248;149.138;2024-02-23T10:53:17;15.18;;;10.77;;
39930;SDS011;26635;-35.248;149.138;2024-02-23T10:56:05;14.75;;;10.93;;
39930;SDS011;26635;-35.248;149.138;2024-02-23T10:58:45;13.88;;;10.75;;
39930;SDS011;26635;-35.248;149.138;2024-02-23T11:01:31;18.65;;;11.23;;
39930;SDS011;26635;-35.248;149.138;2024-02-23T11:04:11;19.25;;;11.32;;
39930;SDS011;26635;-35.248;149.138;2024-02-23T11:06:59;18.83;;;11.88;;
39930;SDS011;26635;-35.248;149.138;2024-02-23T11:12:30;14.70;;;10.68;;
39930;SDS011;26635;-35.248;149.138;2024-02-23T11:15:00;18.90;;;12.10;;
39930;SDS011;26635;-35.248;149.138;2024-02-23T11:17:36;20.35;;;12.48;;
39930;SDS011;26635;-35.248;149.138;2024-02-23T11:20:09;19.52;;;12.18;;
39930;SDS011;26635;-35.248;149.138;2024-02-23T11:22:57;18.00;;;11.48;;
39930;SDS011;26635;-35.248;149.138;2024-02-23T11:25:29;18.17;;;12.23;;
39930;SDS011;26635;-35.248;149.138;2024-02-23T11:28:08;18.30;;;12.63;;
39930;SDS011;26635;-35.248;149.138;2024-02-23T11:30:50;15.43;;;11.60;;
39930;SDS011;26635;-35.248;149.138;2024-02-23T11:33:58;19.05;;;12.80;;
39930;SDS011;26635;-35.248;149.138;2024-02-23T11:36:32;19.60;;;12.50;;
39930;SDS011;26635;-35.248;149.138;2024-02-23T11:39:07;17.85;;;11.15;;
39930;SDS011;26635;-35.248;149.138;2024-02-23T11:41:42;16.80;;;11.30;;
39930;SDS011;26635;-35.248;149.138;2024-02-23T11:44:13;16.38;;;10.93;;
39930;SDS011;26635;-35.248;149.138;2024-02-23T11:46:49;13.80;;;10.18;;
39930;SDS011;26635;-35.248;149.138;2024-02-23T11:49:29;15.23;;;8.27;;
39930;SDS011;26635;-35.248;149.138;2024-02-23T11:52:01;13.60;;;9.20;;
39930;SDS011;26635;-35.248;149.138;2024-02-23T11:54:35;13.10;;;8.95;;
39930;SDS011;26635;-35.248;149.138;2024-02-23T11:57:14;10.30;;;7.68;;
39930;SDS011;26635;-35.248;149.138;2024-02-23T11:59:50;11.75;;;8.02;;
39930;SDS011;26635;-35.248;149.138;2024-02-23T12:02:21;16.73;;;9.00;;
39930;SDS011;26635;-35.248;149.138;2024-02-23T12:04:52;11.32;;;7.80;;
39930;SDS011;26635;-35.248;149.138;2024-02-23T12:07:23;6.82;;;4.78;;
39930;SDS011;26635;-35.248;149.138;2024-02-23T12:09:56;7.82;;;3.72;;
39930;SDS011;26635;-35.248;149.138;2024-02-23T12:12:30;5.88;;;3.03;;
39930;SDS011;26635;-35.248;149.138;2024-02-23T12:15:00;3.80;;;1.80;;
39930;SDS011;26635;-35.248;149.138;2024-02-23T12:17:30;2.40;;;1.63;;
39930;SDS011;26635;-35.248;149.138;2024-02-23T12:20:04;3.08;;;1.25;;
39930;SDS011;26635;-35.248;149.138;2024-02-23T12:22:56;3.55;;;1.67;;
39930;SDS011;26635;-35.248;149.138;2024-02-23T12:26:02;2.20;;;1.10;;
39930;SDS011;26635;-35.248;149.138;2024-02-23T12:29:08;3.75;;;0.98;;
39930;SDS011;26635;-35.248;149.138;2024-02-23T12:32:38;2.40;;;1.23;;
39930;SDS011;26635;-35.248;149.138;2024-02-23T12:35:12;1.55;;;0.90;;
39930;SDS011;26635;-35.248;149.138;2024-02-23T12:38:07;1.70;;;0.80;;
39930;SDS011;26635;-35.248;149.138;2024-02-23T12:41:04;1.70;;;0.90;;
39930;SDS011;26635;-35.248;149.138;2024-02-23T12:46:52;2.95;;;1.00;;
39930;SDS011;26635;-35.248;149.138;2024-02-23T12:49:28;2.43;;;1.00;;
39930;SDS011;26635;-35.248;149.138;2024-02-23T12:52:16;2.08;;;1.10;;
39930;SDS011;26635;-35.248;149.138;2024-02-23T12:54:52;1.67;;;0.88;;
39930;SDS011;26635;-35.248;149.138;2024-02-23T12:57:33;3.53;;;0.80;;
39930;SDS011;26635;-35.248;149.138;2024-02-23T13:00:56;3.03;;;0.95;;
39930;SDS011;26635;-35.248;149.138;2024-02-23T13:03:44;2.33;;;0.82;;
39930;SDS011;26635;-35.248;149.138;2024-02-23T13:06:28;2.53;;;1.55;;
39930;SDS011;26635;-35.248;149.138;2024-02-23T13:09:30;2.25;;;1.23;;
39930;SDS011;26635;-35.248;149.138;2024-02-23T13:12:18;2.83;;;1.33;;
39930;SDS011;26635;-35.248;149.138;2024-02-23T13:15:10;3.47;;;1.38;;
39930;SDS011;26635;-35.248;149.138;2024-02-23T13:17:48;2.60;;;1.42;;
39930;SDS011;26635;-35.248;149.138;2024-02-23T13:20:20;2.55;;;1.17;;
39930;SDS011;26635;-35.248;149.138;2024-02-23T13:23:02;3.63;;;1.73;;
39930;SDS011;26635;-35.248;149.138;2024-02-23T13:25:53;2.42;;;1.50;;
39930;SDS011;26635;-35.248;149.138;2024-02-23T13:35:15;5.30;;;1.95;;
39930;SDS011;26635;-35.248;149.138;2024-02-23T13:37:51;3.70;;;1.50;;
39930;SDS011;26635;-35.248;149.138;2024-02-23T13:40:42;2.85;;;1.58;;
39930;SDS011;26635;-35.248;149.138;2024-02-23T13:43:26;1.90;;;1.23;;
39930;SDS011;26635;-35.248;149.138;2024-02-23T13:46:00;2.83;;;1.30;;
39930;SDS011;26635;-35.248;149.138;2024-02-23T13:48:38;2.57;;;1.43;;
39930;SDS011;26635;-35.248;149.138;2024-02-23T13:51:20;3.38;;;1.40;;
39930;SDS011;26635;-35.248;149.138;2024-02-23T13:53:56;4.60;;;1.55;;
39930;SDS011;26635;-35.248;149.138;2024-02-23T13:56:27;3.45;;;1.38;;
39930;SDS011;26635;-35.248;149.138;2024-02-23T13:59:27;3.58;;;1.45;;
39930;SDS011;26635;-35.248;149.138;2024-02-23T14:02:09;2.88;;;1.48;;
39930;SDS011;26635;-35.248;149.138;2024-02-23T14:04:41;2.28;;;1.08;;
39930;SDS011;26635;-35.248;149.138;2024-02-23T14:07:15;3.47;;;1.25;;
39930;SDS011;26635;-35.248;149.138;2024-02-23T14:09:55;3.08;;;1.30;;
39930;SDS011;26635;-35.248;149.138;2024-02-23T14:12:28;2.63;;;0.90;;
39930;SDS011;26635;-35.248;149.138;2024-02-23T14:14:59;2.60;;;1.00;;
39930;SDS011;26635;-35.248;149.138;2024-02-23T14:17:32;2.13;;;1.00;;
39930;SDS011;26635;-35.248;149.138;2024-02-23T14:20:03;1.55;;;0.85;;
39930;SDS011;26635;-35.248;149.138;2024-02-23T14:22:35;2.17;;;1.08;;
39930;SDS011;26635;-35.248;149.138;2024-02-23T14:25:05;1.13;;;0.73;;
39930;SDS011;26635;-35.248;149.138;2024-02-23T14:27:36;1.55;;;0.85;;
39930;SDS011;26635;-35.248;149.138;2024-02-23T14:30:07;1.52;;;0.70;;
39930;SDS011;26635;-35.248;149.138;2024-02-23T14:32:37;3.10;;;1.00;;
39930;SDS011;26635;-35.248;149.138;2024-02-23T14:35:10;1.73;;;0.90;;
39930;SDS011;26635;-35.248;149.138;2024-02-23T14:37:41;1.83;;;1.15;;
39930;SDS011;26635;-35.248;149.138;2024-02-23T14:40:11;2.45;;;0.82;;
39930;SDS011;26635;-35.248;149.138;2024-02-23T14:42:43;1.33;;;0.70;;
39930;SDS011;26635;-35.248;149.138;2024-02-23T14:45:13;1.63;;;0.90;;
39930;SDS011;26635;-35.248;149.138;2024-02-23T14:47:45;1.42;;;0.60;;
39930;SDS011;26635;-35.248;149.138;2024-02-23T14:50:15;1.27;;;0.63;;
39930;SDS011;26635;-35.248;149.138;2024-02-23T14:52:46;1.48;;;0.80;;
39930;SDS011;26635;-35.248;149.138;2024-02-23T14:55:16;1.80;;;0.60;;